createdAt,value
2017-12-29T00:00:33.936Z,91.30
2017-12-29T00:03:01.465Z,91.60
2017-12-29T00:05:29.087Z,91.80
2017-12-29T00:07:56.673Z,92.00
2017-12-29T00:10:24.198Z,92.10
2017-12-29T00:12:51.716Z,92.20
2017-12-29T00:15:19.253Z,92.10
2017-12-29T00:17:46.758Z,92.20
2017-12-29T00:20:14.297Z,92.30
2017-12-29T00:22:42.578Z,92.40
2017-12-29T00:25:10.973Z,92.40
2017-12-29T00:27:38.510Z,92.40
2017-12-29T00:30:06.797Z,92.50
2017-12-29T00:32:35.106Z,92.40
2017-12-29T00:35:02.612Z,92.40
2017-12-29T00:37:30.109Z,92.30
2017-12-29T00:39:57.636Z,91.90
2017-12-29T00:42:25.949Z,91.90
2017-12-29T00:44:53.478Z,91.90
2017-12-29T00:47:21.015Z,92.00
2017-12-29T00:49:48.543Z,91.80
2017-12-29T00:52:16.041Z,91.60
2017-12-29T00:54:44.337Z,91.20
2017-12-29T00:57:12.631Z,91.10
2017-12-29T00:59:40.159Z,91.10
2017-12-29T01:02:07.675Z,90.90
2017-12-29T01:04:35.221Z,90.70
2017-12-29T01:07:02.729Z,90.80
2017-12-29T01:09:31.061Z,90.70
2017-12-29T01:11:58.591Z,90.70
2017-12-29T01:14:26.079Z,90.70
2017-12-29T01:16:53.605Z,90.80
2017-12-29T01:19:21.143Z,90.80
2017-12-29T01:21:49.426Z,90.70
2017-12-29T01:24:17.683Z,90.80
2017-12-29T01:26:45.227Z,90.80
2017-12-29T01:29:12.955Z,90.60
2017-12-29T01:31:40.468Z,90.50
2017-12-29T01:34:07.996Z,90.60
2017-12-29T01:36:35.531Z,90.70
2017-12-29T01:39:03.037Z,90.70
2017-12-29T01:41:30.578Z,90.70
2017-12-29T01:43:58.075Z,90.70
2017-12-29T01:46:26.371Z,90.60
2017-12-29T01:48:53.868Z,90.60
2017-12-29T01:51:21.401Z,90.50
2017-12-29T01:53:48.889Z,90.40
2017-12-29T01:56:16.390Z,90.20
2017-12-29T01:58:43.959Z,90.10
2017-12-29T02:01:11.467Z,90.10
2017-12-29T02:03:38.961Z,89.50
2017-12-29T02:06:07.233Z,88.20
2017-12-29T02:08:35.501Z,87.90
2017-12-29T02:11:03.024Z,87.80
2017-12-29T02:13:30.516Z,88.00
2017-12-29T02:15:58.047Z,87.80
2017-12-29T02:18:27.928Z,88.30
2017-12-29T02:20:55.463Z,88.30
2017-12-29T02:23:22.979Z,89.00
2017-12-29T02:25:50.471Z,89.10
2017-12-29T02:28:17.991Z,89.40
2017-12-29T02:30:45.487Z,89.50
2017-12-29T02:33:13.800Z,90.00
2017-12-29T02:35:41.328Z,89.90
2017-12-29T02:38:09.592Z,89.70
2017-12-29T02:40:37.888Z,89.60
2017-12-29T02:43:06.192Z,89.60
2017-12-29T02:45:33.692Z,89.60
2017-12-29T02:48:01.320Z,89.10
2017-12-29T02:50:28.845Z,88.90
2017-12-29T02:52:57.105Z,89.30
2017-12-29T02:55:25.383Z,89.40
2017-12-29T02:57:53.654Z,89.30
2017-12-29T03:00:21.936Z,89.60
2017-12-29T03:02:49.529Z,89.60
2017-12-29T03:05:17.042Z,89.60
2017-12-29T03:07:44.571Z,89.90
2017-12-29T03:10:12.093Z,89.40
2017-12-29T03:12:39.604Z,89.40
2017-12-29T03:15:07.090Z,89.60
2017-12-29T03:17:35.383Z,89.50
2017-12-29T03:20:02.877Z,89.50
2017-12-29T03:22:30.376Z,90.00
2017-12-29T03:24:57.916Z,90.20
2017-12-29T03:27:25.455Z,90.10
2017-12-29T03:29:52.985Z,89.60
2017-12-29T03:32:20.501Z,90.00
2017-12-29T03:34:48.026Z,89.90
2017-12-29T03:37:15.544Z,89.90
2017-12-29T03:39:43.055Z,89.40
2017-12-29T03:42:10.614Z,89.40
2017-12-29T03:44:38.138Z,89.30
2017-12-29T03:47:05.643Z,89.20
2017-12-29T03:49:33.183Z,89.10
2017-12-29T03:52:00.672Z,89.00
2017-12-29T03:54:28.154Z,89.20
2017-12-29T03:56:55.678Z,89.20
2017-12-29T03:59:23.169Z,88.60
2017-12-29T04:01:50.704Z,88.80
2017-12-29T04:04:18.206Z,88.70
2017-12-29T04:06:45.740Z,89.00
2017-12-29T04:09:14.003Z,89.20
2017-12-29T04:11:42.298Z,89.00
2017-12-29T04:14:09.786Z,89.00
2017-12-29T04:16:37.288Z,88.80
2017-12-29T04:19:04.795Z,88.80
2017-12-29T04:21:32.309Z,88.80
2017-12-29T04:24:00.611Z,88.70
2017-12-29T04:26:28.155Z,88.70
2017-12-29T04:28:56.426Z,88.20
2017-12-29T04:31:24.721Z,87.90
2017-12-29T04:33:52.239Z,87.90
2017-12-29T04:36:19.747Z,87.40
2017-12-29T04:38:47.304Z,87.50
2017-12-29T04:41:14.837Z,87.70
2017-12-29T04:43:43.119Z,85.80
2017-12-29T04:46:11.421Z,84.80
2017-12-29T04:48:38.934Z,85.50
2017-12-29T04:51:07.598Z,85.00
2017-12-29T04:53:35.123Z,84.90
2017-12-29T04:56:02.641Z,85.00
2017-12-29T04:58:30.158Z,85.30
2017-12-29T05:00:57.664Z,86.30
2017-12-29T05:03:25.947Z,85.30
2017-12-29T05:08:30.147Z,86.20
2017-12-29T05:10:57.673Z,85.90
2017-12-29T05:13:25.169Z,86.70
2017-12-29T05:15:52.687Z,87.50
2017-12-29T05:18:20.215Z,88.30
2017-12-29T05:20:48.495Z,88.90
2017-12-29T05:23:15.997Z,88.90
2017-12-29T05:25:43.533Z,89.00
2017-12-29T05:28:11.023Z,88.70
2017-12-29T05:30:39.995Z,89.10
2017-12-29T05:33:07.524Z,88.40
2017-12-29T05:35:35.278Z,87.70
2017-12-29T05:38:03.537Z,87.10
2017-12-29T05:40:31.060Z,87.10
2017-12-29T05:42:58.568Z,87.20
2017-12-29T05:45:26.851Z,86.50
2017-12-29T05:47:54.352Z,86.40
2017-12-29T05:50:21.867Z,85.80
2017-12-29T05:52:50.153Z,85.60
2017-12-29T05:55:17.678Z,85.50
2017-12-29T05:57:45.302Z,85.30
2017-12-29T06:00:12.822Z,85.00
2017-12-29T06:02:41.122Z,85.50
2017-12-29T06:05:13.264Z,85.30
2017-12-29T06:07:45.084Z,85.30
2017-12-29T06:10:12.698Z,85.30
2017-12-29T06:12:40.329Z,85.30
2017-12-29T06:15:07.872Z,85.00
2017-12-29T06:17:35.392Z,85.20
2017-12-29T06:20:02.935Z,85.90
2017-12-29T06:22:30.454Z,84.60
2017-12-29T06:24:57.973Z,84.80
2017-12-29T06:27:25.465Z,84.40
2017-12-29T06:29:53.019Z,84.40
2017-12-29T06:32:20.544Z,84.70
2017-12-29T06:34:48.063Z,84.20
2017-12-29T06:37:16.364Z,83.40
2017-12-29T06:39:43.875Z,83.40
2017-12-29T06:42:11.372Z,83.40
2017-12-29T06:44:38.919Z,83.10
2017-12-29T06:47:07.205Z,82.80
2017-12-29T06:49:34.726Z,82.80
2017-12-29T06:52:02.259Z,82.40
2017-12-29T06:54:29.776Z,82.10
2017-12-29T06:56:58.035Z,81.70
2017-12-29T06:59:26.315Z,81.50
2017-12-29T07:01:54.652Z,81.60
2017-12-29T07:04:22.168Z,81.50
2017-12-29T07:06:49.719Z,81.70
2017-12-29T07:09:18.025Z,81.80
2017-12-29T07:11:45.520Z,81.80
2017-12-29T07:14:13.039Z,81.90
2017-12-29T07:16:40.561Z,82.00
2017-12-29T07:19:08.852Z,82.60
2017-12-29T07:21:36.432Z,82.60
2017-12-29T07:24:04.107Z,82.90
2017-12-29T07:26:31.620Z,83.10
2017-12-29T07:28:59.143Z,83.00
2017-12-29T07:31:26.638Z,83.30
2017-12-29T07:33:54.943Z,83.80
2017-12-29T07:36:22.546Z,83.60
2017-12-29T07:38:50.091Z,84.00
2017-12-29T07:41:17.582Z,84.30
2017-12-29T07:43:45.874Z,84.50
2017-12-29T07:46:13.392Z,84.50
2017-12-29T07:48:40.930Z,84.60
2017-12-29T07:51:08.444Z,84.50
2017-12-29T07:53:36.752Z,85.10
2017-12-29T07:56:04.268Z,85.00
2017-12-29T07:58:31.786Z,84.90
2017-12-29T08:00:59.357Z,85.20
2017-12-29T08:03:26.866Z,85.20
2017-12-29T08:05:54.900Z,85.30
2017-12-29T08:08:22.443Z,85.30
2017-12-29T08:10:49.985Z,85.60
2017-12-29T08:13:17.501Z,85.80
2017-12-29T08:15:45.793Z,85.90
2017-12-29T08:18:13.356Z,85.90
2017-12-29T08:20:40.882Z,86.00
2017-12-29T08:23:08.382Z,85.70
2017-12-29T08:25:35.918Z,85.90
2017-12-29T08:28:04.186Z,85.50
2017-12-29T08:30:33.135Z,85.60
2017-12-29T08:33:00.665Z,85.60
2017-12-29T08:35:28.217Z,85.40
2017-12-29T08:37:55.739Z,85.60
2017-12-29T08:40:23.255Z,85.30
2017-12-29T08:42:50.753Z,84.70
2017-12-29T08:45:18.267Z,84.80
2017-12-29T08:47:45.829Z,84.40
2017-12-29T08:50:13.368Z,85.10
2017-12-29T08:52:40.862Z,85.20
2017-12-29T08:55:08.375Z,84.60
2017-12-29T08:57:36.662Z,84.10
2017-12-29T09:00:04.180Z,84.10
2017-12-29T09:02:31.705Z,83.60
2017-12-29T09:04:59.220Z,83.40
2017-12-29T09:07:27.497Z,83.40
2017-12-29T09:09:55.017Z,83.30
2017-12-29T09:12:22.529Z,82.50
2017-12-29T09:14:50.041Z,82.60
2017-12-29T09:17:17.680Z,83.10
2017-12-29T09:19:49.661Z,83.20
2017-12-29T09:22:17.296Z,82.30
2017-12-29T09:24:44.822Z,82.40
2017-12-29T09:27:12.360Z,81.90
2017-12-29T09:29:39.864Z,81.60
2017-12-29T09:32:07.390Z,81.30
2017-12-29T09:34:34.919Z,81.10
2017-12-29T09:37:02.436Z,80.90
2017-12-29T09:39:29.951Z,81.10
2017-12-29T09:41:58.548Z,80.60
2017-12-29T09:44:26.082Z,80.40
2017-12-29T09:46:54.371Z,80.00
2017-12-29T09:49:22.667Z,79.70
2017-12-29T09:51:50.950Z,79.00
2017-12-29T09:54:18.473Z,79.00
2017-12-29T09:56:45.968Z,78.80
2017-12-29T09:59:13.498Z,78.60
2017-12-29T10:01:41.796Z,77.70
2017-12-29T10:04:10.054Z,77.80
2017-12-29T10:06:37.565Z,77.80
2017-12-29T10:09:05.097Z,77.10
2017-12-29T10:11:32.623Z,76.50
2017-12-29T10:14:00.887Z,76.20
2017-12-29T10:16:28.457Z,76.10
2017-12-29T10:18:56.151Z,76.10
2017-12-29T10:21:23.669Z,75.50
2017-12-29T10:23:52.220Z,74.50
2017-12-29T10:26:19.751Z,74.50
2017-12-29T10:28:47.285Z,74.30
2017-12-29T10:31:15.576Z,73.90
2017-12-29T10:33:43.103Z,74.30
2017-12-29T10:36:10.600Z,90.20
2017-12-29T10:38:38.133Z,72.30
2017-12-29T10:41:06.556Z,71.10
2017-12-29T10:43:34.072Z,71.00
2017-12-29T10:46:02.352Z,72.50
2017-12-29T10:48:30.658Z,71.70
2017-12-29T10:50:58.205Z,71.70
2017-12-29T10:53:25.748Z,72.00
2017-12-29T10:55:54.056Z,70.20
2017-12-29T10:58:21.564Z,70.20
2017-12-29T11:00:49.101Z,71.20
2017-12-29T11:03:16.610Z,72.30
2017-12-29T11:05:44.141Z,71.20
2017-12-29T11:08:12.418Z,70.60
2017-12-29T11:10:39.991Z,70.60
2017-12-29T11:13:08.335Z,70.40
2017-12-29T11:15:35.985Z,70.40
2017-12-29T11:18:03.479Z,70.70
2017-12-29T11:20:31.020Z,70.20
2017-12-29T11:22:58.545Z,70.50
2017-12-29T11:25:26.077Z,70.40
2017-12-29T11:27:54.352Z,70.50
2017-12-29T11:30:22.625Z,71.40
2017-12-29T11:32:50.167Z,71.40
2017-12-29T11:35:17.731Z,71.30
2017-12-29T11:37:46.015Z,70.10
2017-12-29T11:40:14.320Z,70.30
2017-12-29T11:42:41.858Z,70.20
2017-12-29T11:45:10.135Z,70.70
2017-12-29T11:47:37.678Z,71.30
2017-12-29T11:50:05.196Z,70.30
2017-12-29T11:52:32.757Z,70.60
2017-12-29T11:55:00.293Z,70.30
2017-12-29T11:57:27.816Z,74.20
2017-12-29T11:59:56.138Z,67.50
2017-12-29T12:02:23.640Z,67.50
2017-12-29T12:04:51.167Z,68.90
2017-12-29T12:07:18.723Z,68.60
2017-12-29T12:09:46.236Z,70.10
2017-12-29T12:12:14.524Z,68.60
2017-12-29T12:14:42.053Z,68.60
2017-12-29T12:17:09.557Z,68.70
2017-12-29T12:19:37.159Z,70.40
2017-12-29T12:22:04.695Z,69.80
2017-12-29T12:24:32.258Z,69.00
2017-12-29T12:26:59.777Z,68.20
2017-12-29T12:29:27.300Z,67.80
2017-12-29T12:31:54.909Z,67.60
2017-12-29T12:34:22.437Z,65.80
2017-12-29T12:36:50.720Z,65.40
2017-12-29T12:39:18.276Z,65.30
2017-12-29T12:41:46.559Z,64.60
2017-12-29T12:44:14.094Z,64.60
2017-12-29T12:46:41.627Z,63.70
2017-12-29T12:49:09.158Z,63.80
2017-12-29T12:51:36.686Z,64.50
2017-12-29T12:54:04.974Z,65.60
2017-12-29T12:56:32.510Z,65.60
2017-12-29T12:59:00.050Z,65.70
2017-12-29T13:01:27.550Z,65.30
2017-12-29T13:03:55.041Z,65.50
2017-12-29T13:06:22.666Z,65.70
2017-12-29T13:08:50.155Z,66.30
2017-12-29T13:11:17.826Z,66.40
2017-12-29T13:13:45.332Z,66.60
2017-12-29T13:16:13.663Z,67.20
2017-12-29T13:18:41.212Z,67.30
2017-12-29T13:21:10.578Z,67.30
2017-12-29T13:23:38.884Z,68.00
2017-12-29T13:26:06.412Z,68.00
2017-12-29T13:28:33.942Z,66.60
2017-12-29T13:31:01.469Z,66.50
2017-12-29T13:33:28.983Z,65.70
2017-12-29T13:35:57.741Z,65.90
2017-12-29T13:38:25.266Z,65.80
2017-12-29T13:40:52.825Z,66.50
2017-12-29T13:43:20.368Z,66.70
2017-12-29T13:45:47.908Z,67.30
2017-12-29T13:48:15.560Z,66.70
2017-12-29T13:50:43.136Z,66.90
2017-12-29T13:53:11.457Z,66.70
2017-12-29T13:55:38.956Z,66.70
2017-12-29T13:58:07.257Z,66.10
2017-12-29T14:00:34.764Z,66.10
2017-12-29T14:03:02.296Z,66.30
2017-12-29T14:05:29.820Z,66.10
2017-12-29T14:07:57.352Z,66.10
2017-12-29T14:10:24.866Z,65.40
2017-12-29T14:12:52.388Z,65.30
2017-12-29T14:15:19.937Z,65.80
2017-12-29T14:17:47.487Z,65.30
2017-12-29T14:20:15.055Z,64.60
2017-12-29T14:22:42.571Z,65.30
2017-12-29T14:25:10.144Z,66.70
2017-12-29T14:27:37.682Z,67.00
2017-12-29T14:30:05.210Z,66.60
2017-12-29T14:32:32.744Z,66.10
2017-12-29T14:35:00.281Z,64.90
2017-12-29T14:37:27.822Z,65.70
2017-12-29T14:39:55.353Z,64.30
2017-12-29T14:42:22.872Z,62.50
2017-12-29T14:44:50.387Z,62.50
2017-12-29T14:47:17.937Z,62.00
2017-12-29T14:49:45.496Z,61.10
2017-12-29T14:52:13.051Z,60.40
2017-12-29T14:54:40.565Z,60.40
2017-12-29T14:57:08.103Z,61.00
2017-12-29T14:59:36.208Z,62.10
2017-12-29T15:02:03.813Z,63.10
2017-12-29T15:04:31.349Z,63.60
2017-12-29T15:07:00.048Z,64.20
2017-12-29T15:09:27.638Z,64.20
2017-12-29T15:11:55.150Z,65.30
2017-12-29T15:14:23.482Z,67.80
2017-12-29T15:16:51.008Z,67.80
2017-12-29T15:19:18.542Z,68.40
2017-12-29T15:21:46.813Z,70.10
2017-12-29T15:24:14.361Z,70.00
2017-12-29T15:26:41.876Z,70.10
2017-12-29T15:29:09.420Z,70.40
2017-12-29T15:31:36.934Z,71.60
2017-12-29T15:34:04.448Z,71.20
2017-12-29T15:36:31.984Z,71.30
2017-12-29T15:39:00.293Z,71.40
2017-12-29T15:41:27.794Z,71.40
2017-12-29T15:43:55.313Z,71.00
2017-12-29T15:46:22.806Z,72.20
2017-12-29T15:48:50.345Z,71.60
2017-12-29T15:51:20.863Z,71.60
2017-12-29T15:53:48.366Z,71.70
2017-12-29T15:56:16.688Z,72.00
2017-12-29T15:58:44.275Z,72.00
2017-12-29T16:01:14.531Z,71.60
2017-12-29T16:03:42.832Z,71.70
2017-12-29T16:06:10.399Z,71.70
2017-12-29T16:08:37.932Z,72.00
2017-12-29T16:11:06.209Z,76.70
2017-12-29T16:13:33.748Z,76.70
2017-12-29T16:16:02.034Z,81.90
2017-12-29T16:18:30.327Z,84.80
2017-12-29T16:20:57.850Z,84.80
2017-12-29T16:23:25.385Z,86.90
2017-12-29T16:25:52.903Z,88.80
2017-12-29T16:28:20.430Z,88.60
2017-12-29T16:30:48.028Z,89.70
2017-12-29T16:33:15.585Z,90.00
2017-12-29T16:35:43.110Z,89.50
2017-12-29T16:38:10.652Z,90.40
2017-12-29T16:40:38.180Z,90.40
2017-12-29T16:43:06.499Z,90.60
2017-12-29T16:45:34.028Z,90.60
2017-12-29T16:48:01.591Z,90.50
2017-12-29T16:50:29.124Z,90.70
2017-12-29T16:52:56.684Z,90.70
2017-12-29T16:55:24.302Z,90.90
2017-12-29T16:57:51.798Z,90.80
2017-12-29T17:00:19.329Z,90.10
2017-12-29T17:02:47.629Z,89.70
2017-12-29T17:05:15.158Z,89.60
2017-12-29T17:07:43.443Z,89.00
2017-12-29T17:10:11.729Z,88.20
2017-12-29T17:12:39.260Z,88.20
2017-12-29T17:15:06.816Z,88.20
2017-12-29T17:17:34.389Z,88.80
2017-12-29T17:20:01.911Z,89.40
2017-12-29T17:22:29.448Z,88.90
2017-12-29T17:24:56.973Z,88.30
2017-12-29T17:27:25.309Z,87.60
2017-12-29T17:29:52.804Z,88.30
2017-12-29T17:32:21.135Z,88.40
2017-12-29T17:34:48.695Z,88.40
2017-12-29T17:37:17.140Z,88.00
2017-12-29T17:39:44.668Z,88.40
2017-12-29T17:42:12.196Z,88.90
2017-12-29T17:44:39.715Z,88.90
2017-12-29T17:47:08.000Z,90.30
2017-12-29T17:49:35.524Z,90.30
2017-12-29T17:52:03.115Z,91.20
2017-12-29T17:54:30.648Z,91.70
2017-12-29T17:56:58.328Z,92.00
2017-12-29T17:59:25.892Z,92.20
2017-12-29T18:01:53.415Z,92.30
2017-12-29T18:04:20.947Z,92.50
2017-12-29T18:06:48.544Z,92.70
2017-12-29T18:09:16.903Z,93.20
2017-12-29T18:11:44.406Z,93.20
2017-12-29T18:14:12.015Z,93.40
2017-12-29T18:16:40.061Z,93.80
2017-12-29T18:19:07.616Z,94.00
2017-12-29T18:21:35.444Z,94.00
2017-12-29T18:24:03.729Z,94.50
2017-12-29T18:26:32.012Z,94.60
2017-12-29T18:29:00.499Z,94.80
2017-12-29T18:31:28.065Z,94.80
2017-12-29T18:33:55.951Z,95.00
2017-12-29T18:36:23.502Z,95.20
2017-12-29T18:38:51.025Z,95.20
2017-12-29T18:41:19.316Z,95.60
2017-12-29T18:43:46.873Z,95.30
2017-12-29T18:46:14.388Z,95.50
2017-12-29T18:48:41.888Z,95.60
2017-12-29T18:51:10.192Z,96.10
2017-12-29T18:53:37.764Z,96.10
2017-12-29T18:56:05.266Z,96.20
2017-12-29T18:58:32.841Z,96.10
2017-12-29T19:01:00.362Z,96.20
2017-12-29T19:03:27.903Z,96.10
2017-12-29T19:05:55.436Z,96.30
2017-12-29T19:08:23.053Z,96.40
2017-12-29T19:10:51.003Z,96.30
2017-12-29T19:13:18.499Z,96.20
2017-12-29T19:15:47.268Z,96.20
2017-12-29T19:18:14.800Z,96.20
2017-12-29T19:20:42.355Z,96.40
2017-12-29T19:23:11.486Z,96.20
2017-12-29T19:25:39.379Z,96.20
2017-12-29T19:28:06.926Z,96.30
2017-12-29T19:30:35.207Z,96.50
2017-12-29T19:33:03.651Z,96.30
2017-12-29T19:35:31.536Z,96.30
2017-12-29T19:37:59.552Z,96.40
2017-12-29T19:40:28.357Z,96.00
2017-12-29T19:42:56.715Z,96.50
2017-12-29T19:45:24.369Z,96.10
2017-12-29T19:47:51.928Z,96.10
2017-12-29T19:50:19.452Z,96.30
2017-12-29T19:52:46.964Z,96.50
2017-12-29T19:55:14.508Z,96.30
2017-12-29T19:57:42.125Z,96.20
2017-12-29T20:00:09.706Z,96.30
2017-12-29T20:02:37.278Z,96.40
2017-12-29T20:05:04.848Z,96.20
2017-12-29T20:07:32.414Z,96.20
2017-12-29T20:09:59.942Z,96.20
2017-12-29T20:12:28.260Z,96.30
2017-12-29T20:14:55.861Z,96.30
2017-12-29T20:17:24.309Z,96.30
2017-12-29T20:19:51.828Z,96.20
2017-12-29T20:22:19.409Z,96.20
2017-12-29T20:24:47.023Z,96.10
2017-12-29T20:27:15.314Z,95.90
2017-12-29T20:29:43.674Z,95.90
2017-12-29T20:32:11.198Z,95.90
2017-12-29T20:34:38.753Z,96.10
2017-12-29T20:37:06.277Z,96.10
2017-12-29T20:39:33.847Z,96.20
2017-12-29T20:42:01.359Z,96.20
2017-12-29T20:44:28.877Z,96.00
2017-12-29T20:46:56.443Z,96.00
2017-12-29T20:49:23.961Z,95.90
2017-12-29T20:51:52.222Z,95.90
2017-12-29T20:54:19.773Z,95.90
2017-12-29T20:56:47.320Z,95.90
2017-12-29T20:59:14.862Z,95.70
2017-12-29T21:01:42.408Z,95.60
2017-12-29T21:04:09.977Z,95.60
2017-12-29T21:06:37.499Z,95.70
2017-12-29T21:09:05.815Z,95.70
2017-12-29T21:11:33.336Z,95.70
2017-12-29T21:14:00.894Z,95.50
2017-12-29T21:16:29.200Z,95.40
2017-12-29T21:18:56.767Z,95.40
2017-12-29T21:21:24.303Z,95.50
2017-12-29T21:23:51.797Z,95.50
2017-12-29T21:26:19.335Z,95.40
2017-12-29T21:28:46.894Z,95.40
2017-12-29T21:31:14.430Z,95.60
2017-12-29T21:33:41.941Z,95.80
2017-12-29T21:36:09.474Z,95.80
2017-12-29T21:38:36.965Z,96.00
2017-12-29T21:41:04.492Z,96.00
2017-12-29T21:43:31.981Z,96.10
2017-12-29T21:45:59.548Z,96.30
2017-12-29T21:48:27.054Z,96.20
2017-12-29T21:50:54.563Z,96.40
2017-12-29T21:53:22.107Z,96.50
2017-12-29T21:55:49.632Z,96.40
2017-12-29T21:58:17.190Z,96.40
2017-12-29T22:00:44.728Z,96.40
2017-12-29T22:03:12.271Z,96.40
2017-12-29T22:05:39.808Z,96.20
2017-12-29T22:08:07.321Z,96.20
2017-12-29T22:10:34.870Z,96.20
2017-12-29T22:13:02.419Z,96.20
2017-12-29T22:15:29.940Z,96.40
2017-12-29T22:17:57.490Z,96.60
2017-12-29T22:20:25.039Z,96.20
2017-12-29T22:22:52.580Z,96.30
2017-12-29T22:25:20.107Z,96.20
2017-12-29T22:27:48.418Z,96.10
2017-12-29T22:30:15.955Z,96.10
2017-12-29T22:32:43.479Z,96.00
2017-12-29T22:35:11.033Z,96.10
2017-12-29T22:37:38.555Z,96.00
2017-12-29T22:40:06.121Z,96.00
2017-12-29T22:42:34.399Z,96.10
2017-12-29T22:45:01.945Z,96.10
2017-12-29T22:47:29.438Z,96.10
2017-12-29T22:49:56.990Z,96.00
2017-12-29T22:52:24.523Z,96.20
2017-12-29T22:54:52.064Z,96.20
2017-12-29T22:57:19.613Z,96.00
2017-12-29T22:59:47.933Z,96.10
2017-12-29T23:02:15.484Z,96.10
2017-12-29T23:04:42.998Z,96.00
2017-12-29T23:07:11.324Z,95.80
2017-12-29T23:09:38.838Z,95.80
2017-12-29T23:12:07.109Z,95.70
2017-12-29T23:14:35.441Z,95.50
2017-12-29T23:17:02.954Z,95.50
2017-12-29T23:19:31.240Z,95.30
2017-12-29T23:21:58.786Z,95.30
2017-12-29T23:24:27.084Z,94.80
2017-12-29T23:26:54.602Z,94.80
2017-12-29T23:29:22.137Z,94.80
2017-12-29T23:31:49.632Z,94.60
2017-12-29T23:34:17.902Z,94.20
2017-12-29T23:36:45.463Z,94.10
2017-12-29T23:39:12.981Z,94.00
2017-12-29T23:41:40.483Z,93.90
2017-12-29T23:44:08.794Z,94.10
2017-12-29T23:46:36.303Z,94.10
2017-12-29T23:49:03.824Z,94.10
2017-12-29T23:51:31.380Z,93.90
2017-12-29T23:53:58.926Z,93.80
2017-12-29T23:56:26.445Z,93.90
2017-12-29T23:58:53.990Z,93.90
